Norfolk, Virginia
Traffic Map
Current Weather Conditions
Norfolk, Virginia
Clear
Clear
86°
Feels Like: 97°
Wind Chill: 86° Ceiling: Unl
Heat Index: 97° Visibility: 10mi
Dew Point: 77° Wind: 6mph
Humidity: 74% Direction: 170° (S)
Pressure: 29.9in Gusts: 0mph
Raw Report DataKORF 280051Z AUTO 17005KT 10SM CLR 30/25 A2990 RMK AO2 SLP126 T03000250 TSNO
Traffic Incident Summary
Active as of:
Severity:
Category:
InformationThere was an issue retrieving the traffic information for this location. Please try a different location or try again shortly.
Advertisements
Track Severe Weather on mobile